Time;durP1;ratioP1;P1;durP2;ratioP2;P2;SDS_P1;SDS_P2;PMS_P1;PMS_P2;Temp;Humidity;BMP_temperature;BMP_pressure;BME280_temperature;BME280_humidity;BME280_pressure;Samples;Min_cycle;Max_cycle;Signal;HPM_P1;HPM_P2
2023/09/08 00:00:05;;;;;;;11.45;9.98;;;20.00;99.90;;;;;;5068054;28;20053;-56
2023/09/08 00:02:31;;;;;;;11.43;10.23;;;19.90;99.90;;;;;;5067087;28;20033;-57
2023/09/08 00:04:56;;;;;;;13.38;10.15;;;19.90;99.90;;;;;;5061257;28;20052;-57
2023/09/08 00:07:22;;;;;;;14.65;10.57;;;19.90;99.90;;;;;;5070420;28;20058;-57
2023/09/08 00:09:48;;;;;;;13.10;9.55;;;19.80;99.90;;;;;;5067942;28;20060;-56
2023/09/08 00:12:13;;;;;;;13.23;9.70;;;19.80;99.90;;;;;;5063238;28;20106;-58
2023/09/08 00:14:39;;;;;;;14.88;9.65;;;19.80;99.90;;;;;;5063608;28;20489;-57
2023/09/08 00:17:05;;;;;;;13.32;10.05;;;19.80;99.90;;;;;;5076787;28;20136;-57
2023/09/08 00:19:30;;;;;;;12.95;9.85;;;19.70;99.90;;;;;;5067942;28;20048;-57
2023/09/08 00:21:56;;;;;;;11.10;9.82;;;19.70;99.90;;;;;;5064464;28;20041;-57
2023/09/08 00:24:22;;;;;;;12.98;10.23;;;19.70;99.90;;;;;;5061283;28;20097;-58
2023/09/08 00:26:48;;;;;;;20.30;11.25;;;19.70;99.90;;;;;;5063649;28;20051;-57
2023/09/08 00:29:14;;;;;;;14.50;10.80;;;19.60;99.90;;;;;;5073723;28;20040;-57
2023/09/08 00:31:39;;;;;;;12.38;10.20;;;19.60;99.90;;;;;;5066744;28;20028;-56
2023/09/08 00:34:06;;;;;;;13.30;10.23;;;19.50;99.90;;;;;;5070037;28;20047;-56
2023/09/08 00:36:32;;;;;;;15.48;10.52;;;19.50;99.90;;;;;;5074128;28;20118;-56
2023/09/08 00:38:58;;;;;;;13.02;10.98;;;19.40;99.90;;;;;;5067044;28;20117;-56
2023/09/08 00:41:23;;;;;;;14.02;11.00;;;19.40;99.90;;;;;;5072113;28;20036;-57
2023/09/08 00:43:50;;;;;;;15.07;10.77;;;19.40;99.90;;;;;;5059848;28;20049;-56
2023/09/08 00:46:17;;;;;;;14.07;10.63;;;19.40;99.90;;;;;;5068088;28;20108;-55
2023/09/08 00:48:43;;;;;;;14.73;10.68;;;19.30;99.90;;;;;;5064515;28;20052;-57
2023/09/08 00:51:09;;;;;;;14.45;11.30;;;19.30;99.90;;;;;;5072988;28;20528;-57
2023/09/08 00:53:36;;;;;;;12.55;10.73;;;19.30;99.90;;;;;;5070130;28;20102;-57
2023/09/08 00:56:02;;;;;;;14.90;10.85;;;19.30;99.90;;;;;;5071039;28;20040;-58
2023/09/08 00:58:29;;;;;;;14.05;11.27;;;19.20;99.90;;;;;;5070098;28;20040;-56
2023/09/08 01:00:57;;;;;;;15.73;11.32;;;19.20;99.90;;;;;;5080019;28;20173;-57
2023/09/08 01:03:24;;;;;;;13.38;11.18;;;19.20;99.90;;;;;;5080378;28;20055;-57
2023/09/08 01:05:50;;;;;;;14.85;11.15;;;19.10;99.90;;;;;;5078886;28;20079;-57
2023/09/08 01:08:18;;;;;;;13.93;11.23;;;19.10;99.90;;;;;;5071041;28;20037;-57
2023/09/08 01:10:45;;;;;;;14.50;11.40;;;19.00;99.90;;;;;;5059330;28;20083;-59
2023/09/08 01:13:10;;;;;;;14.52;11.13;;;19.00;99.90;;;;;;5060250;28;20037;-57
2023/09/08 01:15:36;;;;;;;12.95;11.13;;;19.00;99.90;;;;;;5075536;28;20071;-56
2023/09/08 01:18:02;;;;;;;12.88;11.57;;;19.00;99.90;;;;;;5078651;28;20045;-57
2023/09/08 01:20:32;;;;;;;16.48;12.48;;;19.00;99.90;;;;;;5068588;28;20100;-56
2023/09/08 01:23:30;;;;;;;14.82;11.40;;;18.90;99.90;;;;;;5059011;28;20508;-57
2023/09/08 01:26:10;;;;;;;18.90;12.05;;;18.90;99.90;;;;;;5061197;28;20072;-57
2023/09/08 01:28:37;;;;;;;13.52;12.02;;;18.90;99.90;;;;;;5066675;28;20033;-54
2023/09/08 01:31:02;;;;;;;15.00;11.95;;;18.90;99.90;;;;;;5066214;28;20501;-56
2023/09/08 01:33:28;;;;;;;15.18;12.40;;;18.80;99.90;;;;;;5076142;28;20045;-56
2023/09/08 01:35:55;;;;;;;14.43;12.63;;;18.80;99.90;;;;;;5077839;28;20044;-56
2023/09/08 01:38:24;;;;;;;16.08;11.98;;;18.80;99.90;;;;;;5079733;28;20061;-57
2023/09/08 01:40:50;;;;;;;13.38;12.05;;;18.80;99.90;;;;;;5066824;28;20103;-57
2023/09/08 01:43:15;;;;;;;14.50;12.02;;;18.70;99.90;;;;;;5067718;28;20135;-57
2023/09/08 01:45:41;;;;;;;14.65;12.05;;;18.70;99.90;;;;;;5066242;28;20049;-57
2023/09/08 01:48:07;;;;;;;17.05;12.63;;;18.70;99.90;;;;;;5073317;28;20041;-57
2023/09/08 01:50:32;;;;;;;15.20;12.57;;;18.60;99.90;;;;;;5063523;28;20060;-57
2023/09/08 01:52:58;;;;;;;17.67;12.32;;;18.60;99.90;;;;;;5077420;28;20070;-56
2023/09/08 01:55:24;;;;;;;18.35;12.82;;;18.60;99.90;;;;;;5081314;28;20051;-56
2023/09/08 01:57:49;;;;;;;15.45;13.05;;;18.60;99.90;;;;;;5064912;28;20037;-57
2023/09/08 02:00:16;;;;;;;17.05;13.43;;;18.60;99.90;;;;;;5067309;28;20048;-56
2023/09/08 02:02:41;;;;;;;15.20;12.65;;;18.50;99.90;;;;;;5070345;28;20041;-57
2023/09/08 02:05:08;;;;;;;15.40;12.48;;;18.50;99.90;;;;;;5063951;28;20477;-57
2023/09/08 02:07:34;;;;;;;15.18;12.80;;;18.50;99.90;;;;;;5063624;28;20056;-58
2023/09/08 02:09:59;;;;;;;13.52;12.20;;;18.40;99.90;;;;;;5061871;28;20037;-57
2023/09/08 02:12:25;;;;;;;16.75;12.35;;;18.40;99.90;;;;;;5064373;28;20047;-58
2023/09/08 02:14:51;;;;;;;19.88;12.77;;;18.40;99.90;;;;;;5060772;28;20409;-58
2023/09/08 02:17:17;;;;;;;14.88;12.43;;;18.40;99.90;;;;;;5067296;28;20051;-56
2023/09/08 02:19:43;;;;;;;13.93;12.52;;;18.30;99.90;;;;;;5081792;28;20420;-58
2023/09/08 02:22:09;;;;;;;14.85;12.80;;;18.30;99.90;;;;;;5082774;28;20044;-58
2023/09/08 02:24:35;;;;;;;15.52;13.70;;;18.30;99.90;;;;;;5082625;28;20033;-57
2023/09/08 02:27:00;;;;;;;16.73;12.38;;;18.30;99.90;;;;;;5071271;28;20405;-57
2023/09/08 02:29:26;;;;;;;13.65;12.25;;;18.30;99.90;;;;;;5077564;28;20056;-58
2023/09/08 02:31:52;;;;;;;14.88;12.98;;;18.20;99.90;;;;;;5081432;28;20044;-58
2023/09/08 02:34:18;;;;;;;16.98;12.65;;;18.20;99.90;;;;;;5078464;28;20041;-57
2023/09/08 02:36:43;;;;;;;13.65;12.35;;;18.20;99.90;;;;;;5067846;28;20052;-59
2023/09/08 02:39:10;;;;;;;15.55;12.18;;;18.20;99.90;;;;;;5066307;28;20060;-57
2023/09/08 02:41:36;;;;;;;16.42;13.15;;;18.20;99.90;;;;;;5074008;28;20056;-58
2023/09/08 02:44:02;;;;;;;15.27;13.20;;;18.20;99.90;;;;;;5081516;28;20041;-57
2023/09/08 02:46:28;;;;;;;16.00;13.38;;;18.10;99.90;;;;;;5077089;28;20122;-56
2023/09/08 02:48:53;;;;;;;14.90;13.40;;;18.10;99.90;;;;;;5068362;28;20049;-58
2023/09/08 02:51:19;;;;;;;14.57;12.93;;;18.10;99.90;;;;;;5068937;28;20044;-57
2023/09/08 02:53:45;;;;;;;15.68;13.63;;;18.10;99.90;;;;;;5061091;28;20041;-56
2023/09/08 02:56:10;;;;;;;15.05;13.45;;;18.00;99.90;;;;;;5070707;28;20045;-56
2023/09/08 02:58:36;;;;;;;15.57;13.25;;;18.10;99.90;;;;;;5081585;28;20050;-58
2023/09/08 03:01:15;;;;;;;15.95;12.88;;;18.00;99.90;;;;;;5065225;28;20044;-59
2023/09/08 03:03:42;;;;;;;15.18;13.57;;;18.00;99.90;;;;;;5065084;28;20049;-57
2023/09/08 03:06:09;;;;;;;16.60;13.15;;;18.00;99.90;;;;;;5081106;28;20028;-58
2023/09/08 03:08:36;;;;;;;15.60;13.40;;;18.00;99.90;;;;;;5079737;28;20044;-58
2023/09/08 03:11:03;;;;;;;17.80;13.13;;;17.90;99.90;;;;;;5079979;28;20040;-58
2023/09/08 03:13:29;;;;;;;15.77;13.77;;;17.90;99.90;;;;;;5078616;28;20045;-57
2023/09/08 03:15:56;;;;;;;14.60;13.07;;;17.90;99.90;;;;;;5078165;28;20562;-57
2023/09/08 03:18:22;;;;;;;15.95;13.07;;;17.90;99.90;;;;;;5071347;28;20525;-57
2023/09/08 03:20:49;;;;;;;18.17;13.10;;;17.80;99.90;;;;;;5081900;28;20043;-56
2023/09/08 03:23:15;;;;;;;15.82;12.85;;;17.80;99.90;;;;;;5079492;28;20044;-56
2023/09/08 03:25:41;;;;;;;20.63;13.43;;;17.80;99.90;;;;;;5076515;28;20135;-57
2023/09/08 03:28:06;;;;;;;14.40;12.80;;;17.80;99.90;;;;;;5081302;28;20040;-55
2023/09/08 03:30:32;;;;;;;13.98;12.68;;;17.80;99.90;;;;;;5082088;28;20045;-57
2023/09/08 03:32:58;;;;;;;17.67;13.55;;;17.70;99.90;;;;;;5081820;28;20049;-56
2023/09/08 03:35:23;;;;;;;14.77;13.20;;;17.80;99.90;;;;;;5080649;28;20051;-57
2023/09/08 03:37:49;;;;;;;14.48;12.95;;;17.70;99.90;;;;;;5077859;28;20084;-56
2023/09/08 03:40:15;;;;;;;15.55;13.48;;;17.70;99.90;;;;;;5060388;28;20065;-57
2023/09/08 03:42:42;;;;;;;15.15;13.55;;;17.70;99.90;;;;;;5062612;28;20104;-56
2023/09/08 03:45:08;;;;;;;15.75;13.68;;;17.70;99.90;;;;;;5060682;28;20486;-56
2023/09/08 03:47:34;;;;;;;18.60;13.80;;;17.60;99.90;;;;;;5061648;28;20114;-56
2023/09/08 03:49:59;;;;;;;15.55;13.52;;;17.60;99.90;;;;;;5066350;28;20048;-56
2023/09/08 03:52:26;;;;;;;16.65;13.35;;;17.60;99.90;;;;;;5065321;28;20061;-57
2023/09/08 03:54:51;;;;;;;16.33;13.63;;;17.60;99.90;;;;;;5075217;28;20058;-57
2023/09/08 03:57:17;;;;;;;15.57;13.63;;;17.50;99.90;;;;;;5063563;28;20045;-57
2023/09/08 03:59:43;;;;;;;19.52;13.77;;;17.50;99.90;;;;;;5072604;28;20044;-56
2023/09/08 04:02:08;;;;;;;16.95;13.52;;;17.50;99.90;;;;;;5063604;28;20069;-57
2023/09/08 04:04:34;;;;;;;14.88;13.27;;;17.40;99.90;;;;;;5071086;28;20128;-57
2023/09/08 04:07:00;;;;;;;16.15;14.55;;;17.50;99.90;;;;;;5069301;28;20044;-56
2023/09/08 04:09:27;;;;;;;14.68;13.10;;;17.40;99.90;;;;;;5064681;28;20036;-57
2023/09/08 04:11:54;;;;;;;17.52;14.38;;;17.40;99.90;;;;;;5075993;28;20071;-56
2023/09/08 04:14:21;;;;;;;15.57;13.68;;;17.40;99.90;;;;;;5067090;28;20563;-57
2023/09/08 04:16:46;;;;;;;18.25;14.35;;;17.30;99.90;;;;;;5068952;28;20068;-57
2023/09/08 04:19:12;;;;;;;18.17;13.52;;;17.40;99.90;;;;;;5077682;28;20040;-58
2023/09/08 04:21:38;;;;;;;15.23;13.68;;;17.30;99.90;;;;;;5063994;28;20127;-57
2023/09/08 04:24:04;;;;;;;18.58;14.57;;;17.30;99.90;;;;;;5060292;28;20520;-57
2023/09/08 04:26:31;;;;;;;17.20;13.60;;;17.30;99.90;;;;;;5059976;28;20041;-57
2023/09/08 04:28:56;;;;;;;19.38;14.75;;;17.20;99.90;;;;;;5060694;28;20064;-58
2023/09/08 04:31:22;;;;;;;17.30;14.95;;;17.20;99.90;;;;;;5070717;28;20041;-57
2023/09/08 04:33:47;;;;;;;15.13;13.55;;;17.20;99.90;;;;;;5067384;28;20048;-57
2023/09/08 04:36:13;;;;;;;18.20;14.15;;;17.20;99.90;;;;;;5076594;28;20043;-56
2023/09/08 04:38:41;;;;;;;18.75;14.50;;;17.20;99.90;;;;;;5068999;28;20056;-56
2023/09/08 04:41:07;;;;;;;18.90;14.75;;;17.10;99.90;;;;;;5059761;28;20049;-55
2023/09/08 04:43:33;;;;;;;18.50;14.98;;;17.10;99.90;;;;;;5076987;28;20090;-57
2023/09/08 04:45:58;;;;;;;16.25;14.50;;;17.10;99.90;;;;;;5080140;28;20086;-58
2023/09/08 04:48:24;;;;;;;16.15;14.60;;;17.00;99.90;;;;;;5071225;28;20094;-57
2023/09/08 04:50:51;;;;;;;16.15;14.63;;;17.00;99.90;;;;;;5075081;28;20083;-56
2023/09/08 04:53:17;;;;;;;16.60;14.80;;;17.00;99.90;;;;;;5079100;28;20036;-57
2023/09/08 04:55:43;;;;;;;17.65;15.38;;;17.00;99.90;;;;;;5078828;28;20040;-57
2023/09/08 04:58:09;;;;;;;17.40;15.40;;;17.00;99.90;;;;;;5073125;28;20098;-57
2023/09/08 05:00:34;;;;;;;19.55;15.93;;;17.00;99.90;;;;;;5065067;28;20110;-57
2023/09/08 05:03:00;;;;;;;16.77;14.75;;;16.90;99.90;;;;;;5059879;28;20033;-57
2023/09/08 05:05:26;;;;;;;17.63;15.45;;;16.90;99.90;;;;;;5068475;28;20032;-58
2023/09/08 05:07:55;;;;;;;17.40;14.40;;;16.90;99.90;;;;;;5061752;28;20041;-58
2023/09/08 05:10:22;;;;;;;19.15;14.77;;;16.90;99.90;;;;;;5061225;28;20710;-56
2023/09/08 05:12:49;;;;;;;18.92;14.88;;;16.90;99.90;;;;;;5060690;28;20053;-57
2023/09/08 05:15:15;;;;;;;17.10;15.25;;;16.90;99.90;;;;;;5070374;28;20033;-57
2023/09/08 05:17:41;;;;;;;16.75;14.98;;;16.90;99.90;;;;;;5065019;28;20049;-56
2023/09/08 05:20:07;;;;;;;18.23;15.45;;;16.90;99.90;;;;;;5062670;28;20025;-57
2023/09/08 05:22:33;;;;;;;18.10;15.85;;;16.90;99.90;;;;;;5065040;28;20040;-58
2023/09/08 05:24:58;;;;;;;17.88;15.70;;;16.90;99.90;;;;;;5068443;28;20149;-56
2023/09/08 05:27:24;;;;;;;19.05;15.27;;;16.80;99.90;;;;;;5067854;28;20599;-57
2023/09/08 05:29:50;;;;;;;19.40;15.60;;;16.80;99.90;;;;;;5074070;28;20624;-57
2023/09/08 05:32:15;;;;;;;18.25;15.35;;;16.90;99.90;;;;;;5063360;28;20044;-57
2023/09/08 05:34:42;;;;;;;16.90;15.00;;;16.90;99.90;;;;;;5063323;28;20471;-57
2023/09/08 05:37:08;;;;;;;16.25;14.55;;;16.80;99.90;;;;;;5063455;28;20076;-57
2023/09/08 05:39:34;;;;;;;16.20;14.50;;;16.80;99.90;;;;;;5076430;28;20048;-57
2023/09/08 05:42:00;;;;;;;21.55;15.38;;;16.90;99.90;;;;;;5068044;28;20079;-57
2023/09/08 05:44:25;;;;;;;16.98;15.27;;;16.80;99.90;;;;;;5068299;28;20166;-58
2023/09/08 05:46:51;;;;;;;16.85;15.05;;;16.80;99.90;;;;;;5078147;28;20053;-57
2023/09/08 05:49:17;;;;;;;20.63;15.40;;;16.90;99.90;;;;;;5061730;28;21653;-57
2023/09/08 05:51:44;;;;;;;17.98;16.05;;;16.90;99.90;;;;;;5072219;28;20068;-57
2023/09/08 05:54:10;;;;;;;17.70;15.85;;;16.90;99.90;;;;;;5068182;28;20037;-57
2023/09/08 05:56:37;;;;;;;17.05;15.13;;;16.90;99.90;;;;;;5079210;28;20063;-57
2023/09/08 05:59:03;;;;;;;21.10;16.15;;;16.90;99.90;;;;;;5063480;28;20071;-55
2023/09/08 06:01:29;;;;;;;16.45;14.80;;;16.90;99.90;;;;;;5064481;28;20408;-57
2023/09/08 06:03:55;;;;;;;17.00;14.20;;;17.00;99.90;;;;;;5075962;28;20041;-58
2023/09/08 06:06:21;;;;;;;20.52;15.18;;;17.00;99.90;;;;;;5065146;28;20048;-57
2023/09/08 06:08:47;;;;;;;19.48;15.20;;;17.00;99.90;;;;;;5072170;28;20076;-57
2023/09/08 06:11:13;;;;;;;19.33;15.80;;;17.00;99.90;;;;;;5067447;28;20047;-56
2023/09/08 06:13:38;;;;;;;17.73;15.82;;;17.10;99.90;;;;;;5081803;28;20084;-58
2023/09/08 06:16:04;;;;;;;19.33;14.88;;;17.10;99.90;;;;;;5076122;28;20090;-58
2023/09/08 06:18:39;;;;;;;18.83;16.02;;;17.10;99.90;;;;;;5068574;28;20630;-57
2023/09/08 06:21:06;;;;;;;17.60;15.75;;;17.10;99.90;;;;;;5067830;28;20075;-57
2023/09/08 06:23:33;;;;;;;18.35;14.85;;;17.70;99.90;;;;;;5056277;28;20128;-59
2023/09/08 06:25:59;;;;;;;17.67;14.60;;;17.20;99.90;;;;;;5062485;28;20029;-59
2023/09/08 06:28:28;;;;;;;18.33;14.90;;;17.30;99.90;;;;;;5066941;28;20041;-58
2023/09/08 06:30:54;;;;;;;19.85;15.07;;;17.30;99.90;;;;;;5064611;28;20044;-59
2023/09/08 06:33:22;;;;;;;19.10;14.18;;;17.40;99.90;;;;;;5066020;28;20044;-59
2023/09/08 06:35:47;;;;;;;16.70;14.10;;;17.40;99.90;;;;;;5070599;28;20055;-60
2023/09/08 06:38:13;;;;;;;17.17;14.00;;;17.50;99.90;;;;;;5066553;28;20049;-58
2023/09/08 06:40:39;;;;;;;26.73;14.90;;;17.50;99.90;;;;;;5061783;28;20121;-57
2023/09/08 06:43:05;;;;;;;19.35;13.80;;;17.20;99.90;;;;;;5069393;28;20106;-58
2023/09/08 06:45:31;;;;;;;15.98;13.48;;;17.60;99.90;;;;;;5060568;28;20033;-59
2023/09/08 06:47:57;;;;;;;16.08;14.05;;;17.70;99.90;;;;;;5059565;28;20065;-57
2023/09/08 06:50:23;;;;;;;20.45;14.23;;;17.70;99.90;;;;;;5064089;28;20048;-58
2023/09/08 06:52:52;;;;;;;22.23;14.50;;;17.80;99.90;;;;;;5065733;28;20174;-61
2023/09/08 06:55:19;;;;;;;20.13;13.90;;;17.90;99.90;;;;;;5075320;28;20079;-59
2023/09/08 06:57:45;;;;;;;16.58;14.15;;;18.00;99.90;;;;;;5054845;28;20047;-58
2023/09/08 07:00:12;;;;;;;18.25;14.00;;;18.00;99.90;;;;;;5066105;28;20097;-59
2023/09/08 07:02:39;;;;;;;18.98;13.63;;;18.20;99.90;;;;;;5061544;28;20425;-58
2023/09/08 07:05:08;;;;;;;16.33;13.05;;;18.40;99.90;;;;;;5063060;28;20585;-59
2023/09/08 07:07:37;;;;;;;17.67;12.82;;;18.70;99.90;;;;;;5065036;28;20033;-56
2023/09/08 07:10:04;;;;;;;16.90;12.98;;;19.10;99.90;;;;;;5070655;28;20040;-58
2023/09/08 07:12:29;;;;;;;15.73;11.18;;;19.50;99.90;;;;;;5073595;28;20115;-59
2023/09/08 07:14:56;;;;;;;17.10;11.60;;;19.80;99.90;;;;;;5069125;28;20080;-60
2023/09/08 07:17:23;;;;;;;12.88;10.93;;;20.10;99.90;;;;;;5061139;28;20057;-58
2023/09/08 07:19:49;;;;;;;18.30;11.68;;;20.40;99.90;;;;;;5067690;28;20080;-59
2023/09/08 07:22:15;;;;;;;12.73;10.50;;;20.60;99.90;;;;;;5071965;28;20045;-58
2023/09/08 07:24:41;;;;;;;13.25;10.60;;;20.80;99.90;;;;;;5068344;28;20143;-59
2023/09/08 07:27:07;;;;;;;13.05;10.88;;;21.00;99.90;;;;;;5065270;28;20040;-59
2023/09/08 07:29:33;;;;;;;18.13;11.25;;;21.20;99.90;;;;;;5070375;28;20107;-59
2023/09/08 07:31:59;;;;;;;11.63;10.43;;;21.40;99.90;;;;;;5061872;28;20044;-59
2023/09/08 07:34:25;;;;;;;14.07;10.77;;;21.60;99.90;;;;;;5066343;28;20097;-58
2023/09/08 07:36:50;;;;;;;17.73;10.63;;;21.80;99.90;;;;;;5074440;28;20308;-59
2023/09/08 07:39:16;;;;;;;12.90;10.32;;;21.90;99.90;;;;;;5062597;28;20029;-59
2023/09/08 07:41:42;;;;;;;12.70;10.52;;;22.00;99.90;;;;;;5060796;28;20049;-60
2023/09/08 07:44:08;;;;;;;13.00;10.13;;;22.20;99.90;;;;;;5060585;28;20104;-60
2023/09/08 07:46:33;;;;;;;11.60;10.40;;;22.30;99.90;;;;;;5061548;28;20049;-58
2023/09/08 07:49:00;;;;;;;10.48;9.35;;;22.30;99.90;;;;;;5061028;28;20053;-59
2023/09/08 07:51:26;;;;;;;14.40;10.23;;;22.40;99.90;;;;;;5059725;28;20263;-59
2023/09/08 07:53:53;;;;;;;12.32;10.77;;;22.40;99.90;;;;;;5067215;28;20044;-60
2023/09/08 07:56:19;;;;;;;14.90;11.10;;;22.30;99.90;;;;;;5069375;28;20121;-59
2023/09/08 07:58:45;;;;;;;16.38;11.02;;;22.30;99.90;;;;;;5065564;28;20499;-59
2023/09/08 08:01:13;;;;;;;12.60;10.40;;;22.20;99.90;;;;;;5073774;28;20108;-58
2023/09/08 08:03:39;;;;;;;13.95;10.93;;;22.10;99.90;;;;;;5071380;28;20037;-59
2023/09/08 08:06:05;;;;;;;11.88;10.63;;;22.10;99.90;;;;;;5066807;28;20052;-59
2023/09/08 08:08:31;;;;;;;12.02;10.35;;;22.00;99.90;;;;;;5064537;28;20040;-59
2023/09/08 08:10:57;;;;;;;12.55;11.25;;;22.00;99.90;;;;;;5060753;28;20094;-59
2023/09/08 08:13:23;;;;;;;13.50;10.77;;;21.90;99.90;;;;;;5061496;28;20037;-59
2023/09/08 08:15:49;;;;;;;13.32;10.43;;;21.90;99.90;;;;;;5061466;28;20080;-59
2023/09/08 08:18:15;;;;;;;12.60;10.13;;;21.90;99.90;;;;;;5061207;28;20041;-58
2023/09/08 08:20:41;;;;;;;16.45;9.98;;;21.90;99.90;;;;;;5070966;28;20056;-56
2023/09/08 08:23:06;;;;;;;16.65;10.05;;;21.90;99.90;;;;;;5058596;28;20080;-59
2023/09/08 08:25:33;;;;;;;12.65;10.45;;;21.90;99.90;;;;;;5061881;28;20029;-59
2023/09/08 08:28:00;;;;;;;13.73;9.63;;;21.90;99.90;;;;;;5063500;28;20511;-59
2023/09/08 08:30:27;;;;;;;10.82;9.32;;;21.90;99.90;;;;;;5061621;28;20409;-59
2023/09/08 08:32:53;;;;;;;11.25;8.93;;;21.90;99.90;;;;;;5062076;28;20075;-56
2023/09/08 08:35:21;;;;;;;11.10;9.65;;;21.90;99.90;;;;;;5070376;28;20099;-59
2023/09/08 08:37:47;;;;;;;14.93;10.93;;;21.90;99.90;;;;;;5066432;28;20495;-59
2023/09/08 08:40:13;;;;;;;16.02;10.10;;;21.80;99.90;;;;;;5063592;28;20515;-58
2023/09/08 08:42:40;;;;;;;13.68;8.90;;;21.80;99.90;;;;;;5073015;28;20049;-58
2023/09/08 08:45:07;;;;;;;10.68;9.40;;;21.80;99.90;;;;;;5061470;28;20534;-62
2023/09/08 08:47:33;;;;;;;12.82;10.75;;;21.90;99.90;;;;;;5067491;28;20079;-64
2023/09/08 08:50:00;;;;;;;13.35;9.93;;;21.90;99.90;;;;;;5059752;28;20041;-61
2023/09/08 08:52:26;;;;;;;9.82;8.73;;;21.90;99.90;;;;;;5061110;28;20041;-62
2023/09/08 08:54:52;;;;;;;14.98;9.20;;;21.90;99.90;;;;;;5056235;28;20104;-62
2023/09/08 08:57:19;;;;;;;14.70;9.15;;;22.10;99.90;;;;;;5057426;28;20083;-62
2023/09/08 08:59:45;;;;;;;11.65;8.50;;;22.10;99.90;;;;;;5069243;28;20536;-62
2023/09/08 09:02:14;;;;;;;10.70;8.30;;;22.30;99.90;;;;;;5060987;28;20106;-62
2023/09/08 09:04:40;;;;;;;10.95;8.32;;;22.40;99.90;;;;;;5060836;28;20107;-61
2023/09/08 09:07:07;;;;;;;10.90;8.55;;;22.40;99.90;;;;;;5053768;28;20409;-61
2023/09/08 09:09:33;;;;;;;12.00;9.30;;;22.50;99.90;;;;;;5059325;28;20120;-62
2023/09/08 09:11:59;;;;;;;16.13;8.50;;;22.50;99.90;;;;;;5061660;28;20045;-61
2023/09/08 09:14:25;;;;;;;10.27;8.05;;;22.60;99.90;;;;;;5060372;28;20037;-61
2023/09/08 09:16:51;;;;;;;15.77;9.45;;;22.70;99.90;;;;;;5072017;28;20094;-62
2023/09/08 09:19:31;;;;;;;10.77;8.98;;;22.70;99.90;;;;;;5069756;28;20052;-62
2023/09/08 09:21:57;;;;;;;17.00;7.95;;;22.80;99.90;;;;;;5059083;28;20037;-62
2023/09/08 09:24:43;;;;;;;11.35;8.02;;;22.90;99.90;;;;;;5061824;28;20048;-62
2023/09/08 09:27:10;;;;;;;9.25;8.30;;;22.90;99.90;;;;;;5069318;28;20049;-62
2023/09/08 09:29:46;;;;;;;12.93;7.82;;;23.00;99.90;;;;;;5060939;28;20040;-62
2023/09/08 09:32:12;;;;;;;53.20;12.20;;;23.10;99.90;;;;;;5062593;28;20052;-61
2023/09/08 09:34:49;;;;;;;12.32;8.10;;;23.10;99.90;;;;;;5059237;28;20706;-62
2023/09/08 09:37:15;;;;;;;13.10;7.78;;;23.20;99.90;;;;;;5040976;28;20045;-61
2023/09/08 09:39:41;;;;;;;14.52;8.48;;;23.30;99.90;;;;;;5064982;28;20243;-61
2023/09/08 09:42:07;;;;;;;9.85;7.32;;;23.40;99.90;;;;;;5060777;28;20044;-61
2023/09/08 09:44:32;;;;;;;9.35;7.75;;;23.30;99.90;;;;;;5064233;28;20044;-61
2023/09/08 09:47:00;;;;;;;10.25;7.35;;;23.40;99.90;;;;;;5062384;28;20045;-61
2023/09/08 09:49:31;;;;;;;12.02;7.25;;;23.40;99.90;;;;;;5068264;28;20048;-62
2023/09/08 09:51:58;;;;;;;10.35;7.40;;;23.40;99.90;;;;;;5073345;28;20067;-62
2023/09/08 09:54:24;;;;;;;10.70;6.97;;;23.40;99.90;;;;;;5058408;28;20040;-60
2023/09/08 09:56:51;;;;;;;10.75;6.90;;;23.50;99.90;;;;;;5062137;28;20049;-62
2023/09/08 09:59:17;;;;;;;7.82;6.50;;;23.60;99.90;;;;;;5058477;28;20044;-61
2023/09/08 10:01:43;;;;;;;11.82;7.55;;;23.70;99.90;;;;;;5060558;28;20184;-61
2023/09/08 10:04:10;;;;;;;11.35;7.53;;;23.70;99.90;;;;;;5061701;28;20045;-61
2023/09/08 10:06:38;;;;;;;9.40;7.25;;;23.70;99.90;;;;;;5069949;28;20029;-62
2023/09/08 10:09:08;;;;;;;10.68;7.00;;;23.80;99.90;;;;;;5064127;28;20032;-61
2023/09/08 10:11:48;;;;;;;8.35;6.70;;;23.80;99.90;;;;;;5070487;28;20056;-61
2023/09/08 10:14:15;;;;;;;8.50;7.28;;;23.90;99.90;;;;;;5070928;28;20036;-62
2023/09/08 10:16:45;;;;;;;7.57;5.95;;;23.90;99.90;;;;;;5067739;28;20044;-61
2023/09/08 10:19:11;;;;;;;8.52;6.82;;;23.90;99.90;;;;;;5071023;28;20045;-61
2023/09/08 10:21:48;;;;;;;8.82;6.95;;;24.00;99.90;;;;;;5070896;28;20044;-60
2023/09/08 10:24:17;;;;;;;11.73;7.72;;;24.10;99.90;;;;;;5069575;28;20048;-61
2023/09/08 10:26:46;;;;;;;8.38;7.40;;;24.20;99.90;;;;;;5065280;28;21075;-62
2023/09/08 10:29:13;;;;;;;9.60;7.53;;;24.30;99.90;;;;;;5069060;28;20044;-62
2023/09/08 10:31:39;;;;;;;12.30;7.55;;;24.30;99.90;;;;;;5060203;28;20040;-62
2023/09/08 10:34:06;;;;;;;10.20;7.57;;;24.30;99.90;;;;;;5074141;28;20052;-62
2023/09/08 10:36:33;;;;;;;9.93;7.70;;;24.30;99.90;;;;;;5067025;28;20043;-61
2023/09/08 10:39:27;;;;;;;32.88;7.80;;;24.40;99.90;;;;;;5063745;28;20529;-61
2023/09/08 10:42:19;;;;;;;14.93;7.57;;;24.50;99.90;;;;;;5066269;28;20431;-61
2023/09/08 10:45:01;;;;;;;10.68;7.65;;;24.60;99.90;;;;;;5068724;28;20078;-61
2023/09/08 10:47:46;;;;;;;11.90;7.50;;;24.60;99.90;;;;;;5065238;28;20044;-62
2023/09/08 10:50:27;;;;;;;12.30;7.35;;;24.50;99.90;;;;;;5071554;28;20045;-62
2023/09/08 10:53:05;;;;;;;12.60;7.38;;;24.60;99.90;;;;;;5066535;28;20071;-62
2023/09/08 10:55:42;;;;;;;11.48;7.40;;;24.60;99.90;;;;;;5069154;28;20051;-62
2023/09/08 10:58:11;;;;;;;8.13;7.32;;;24.60;99.90;;;;;;5052895;28;20040;-60
2023/09/08 11:00:57;;;;;;;9.20;7.18;;;24.70;99.90;;;;;;5074137;28;20037;-61
2023/09/08 11:03:47;;;;;;;9.05;7.38;;;24.70;99.90;;;;;;5070316;28;20051;-62
2023/09/08 11:06:16;;;;;;;9.52;7.65;;;24.70;99.90;;;;;;5064867;28;20045;-61
2023/09/08 11:08:43;;;;;;;8.82;7.53;;;24.80;99.90;;;;;;5067619;28;20044;-61
2023/09/08 11:11:13;;;;;;;11.77;7.00;;;24.80;99.90;;;;;;5068460;28;20061;-62
2023/09/08 11:13:45;;;;;;;10.15;7.30;;;24.80;99.90;;;;;;5054347;28;20059;-62
2023/09/08 11:16:11;;;;;;;12.77;7.60;;;24.80;99.90;;;;;;5064600;28;20044;-61
2023/09/08 11:18:37;;;;;;;12.23;7.78;;;24.90;99.90;;;;;;5065947;28;20040;-61
2023/09/08 11:21:07;;;;;;;12.07;7.50;;;25.00;99.90;;;;;;5063757;28;20489;-61
2023/09/08 11:23:33;;;;;;;9.52;6.90;;;25.10;99.90;;;;;;5067790;28;20129;-62
2023/09/08 11:26:00;;;;;;;8.10;6.65;;;25.20;99.90;;;;;;5065935;28;20099;-62
2023/09/08 11:28:28;;;;;;;9.65;6.72;;;25.20;99.90;;;;;;5067822;28;20048;-62
2023/09/08 11:30:55;;;;;;;17.65;7.05;;;25.30;99.90;;;;;;5063394;28;20062;-62
2023/09/08 11:33:24;;;;;;;10.02;6.30;;;25.40;99.90;;;;;;5061790;28;20066;-62
2023/09/08 11:35:52;;;;;;;7.75;6.45;;;25.40;99.90;;;;;;5062568;28;20049;-62
2023/09/08 11:38:18;;;;;;;9.95;5.65;;;25.50;99.90;;;;;;5065263;28;20128;-62
2023/09/08 11:40:45;;;;;;;9.55;6.20;;;25.50;99.90;;;;;;5071175;28;20079;-62
2023/09/08 11:43:11;;;;;;;9.63;6.07;;;25.50;99.90;;;;;;5059719;28;20064;-62
2023/09/08 11:45:37;;;;;;;11.45;5.30;;;25.50;99.90;;;;;;5067512;28;20071;-62
2023/09/08 11:48:04;;;;;;;8.07;5.80;;;25.60;99.90;;;;;;5059048;28;20048;-62
2023/09/08 11:50:31;;;;;;;9.45;5.80;;;25.60;99.90;;;;;;5062721;28;20045;-62
2023/09/08 11:53:02;;;;;;;8.50;5.38;;;25.60;99.90;;;;;;5055723;28;20037;-62
2023/09/08 11:55:28;;;;;;;11.85;6.18;;;25.80;99.90;;;;;;5075618;28;20054;-62
2023/09/08 11:57:57;;;;;;;6.57;5.38;;;25.80;99.90;;;;;;5062291;28;20045;-62
2023/09/08 12:00:25;;;;;;;10.25;5.68;;;25.80;99.90;;;;;;5061040;28;20136;-63
2023/09/08 12:02:51;;;;;;;11.00;5.53;;;25.80;99.90;;;;;;5070376;28;20056;-63
2023/09/08 12:05:24;;;;;;;10.48;6.07;;;25.90;99.90;;;;;;5062526;28;20069;-61
2023/09/08 12:07:51;;;;;;;7.45;5.75;;;25.90;99.90;;;;;;5065451;28;20444;-61
2023/09/08 12:10:18;;;;;;;10.10;6.13;;;26.00;99.90;;;;;;5061317;28;20087;-61
2023/09/08 12:12:55;;;;;;;6.75;5.72;;;26.10;99.90;;;;;;5068350;28;20055;-60
2023/09/08 12:15:38;;;;;;;7.25;5.65;;;25.70;99.90;;;;;;5061632;28;20094;-61
2023/09/08 12:18:07;;;;;;;13.68;6.07;;;26.10;99.90;;;;;;5073390;28;20086;-61
2023/09/08 12:20:34;;;;;;;8.60;5.90;;;26.20;99.90;;;;;;5046149;28;20037;-61
2023/09/08 12:23:03;;;;;;;11.50;6.55;;;26.20;99.90;;;;;;5064781;28;20045;-61
2023/09/08 12:25:31;;;;;;;7.72;5.60;;;26.20;99.90;;;;;;5075859;28;20059;-61
2023/09/08 12:27:58;;;;;;;8.45;5.65;;;26.20;99.90;;;;;;5076922;28;20098;-62
2023/09/08 12:30:32;;;;;;;7.75;5.97;;;26.30;99.90;;;;;;5064722;28;20107;-62